createdAt,value
2018-07-19T00:01:54.234Z,76.04
2018-07-19T00:04:23.227Z,75.78
2018-07-19T00:06:51.851Z,75.52
2018-07-19T00:09:22.211Z,76.17
2018-07-19T00:11:52.913Z,76.04
2018-07-19T00:14:22.564Z,75.84
2018-07-19T00:16:51.263Z,76.17
2018-07-19T00:19:19.925Z,75.48
2018-07-19T00:21:48.641Z,75.36
2018-07-19T00:24:17.297Z,75.30
2018-07-19T00:26:45.987Z,75.08
2018-07-19T00:29:14.631Z,74.52
2018-07-19T00:31:43.348Z,73.67
2018-07-19T00:34:12.002Z,72.69
2018-07-19T00:36:41.056Z,72.96
2018-07-19T00:39:09.932Z,71.88
2018-07-19T00:41:39.333Z,71.88
2018-07-19T00:44:08.022Z,71.81
2018-07-19T00:46:36.619Z,73.17
2018-07-19T00:49:05.618Z,74.10
2018-07-19T00:51:34.426Z,74.99
2018-07-19T00:54:03.384Z,72.27
2018-07-19T00:56:32.299Z,70.69
2018-07-19T00:59:01.029Z,70.92
2018-07-19T01:01:29.810Z,71.27
2018-07-19T01:03:58.660Z,70.36
2018-07-19T01:06:27.497Z,69.65
2018-07-19T01:08:56.368Z,69.05
2018-07-19T01:11:25.212Z,69.15
2018-07-19T01:13:53.936Z,68.79
2018-07-19T01:16:22.651Z,69.23
2018-07-19T01:18:51.619Z,69.09
2018-07-19T01:21:20.313Z,69.39
2018-07-19T01:23:48.972Z,69.24
2018-07-19T01:26:17.658Z,69.48
2018-07-19T01:28:46.332Z,69.86
2018-07-19T01:31:15.956Z,70.27
2018-07-19T01:33:44.809Z,70.61
2018-07-19T01:36:13.499Z,70.33
2018-07-19T01:38:42.283Z,69.68
2018-07-19T01:42:41.331Z,70.18
2018-07-19T01:45:10.747Z,70.53
2018-07-19T01:47:39.707Z,70.69
2018-07-19T01:50:09.151Z,70.46
2018-07-19T01:52:38.208Z,70.15
2018-07-19T01:55:07.230Z,70.76
2018-07-19T01:57:35.968Z,71.18
2018-07-19T02:00:05.333Z,71.66
2018-07-19T02:02:34.011Z,71.07
2018-07-19T02:05:02.741Z,71.66
2018-07-19T02:07:31.411Z,71.79
2018-07-19T02:10:00.141Z,71.85
2018-07-19T02:12:28.790Z,72.16
2018-07-19T02:14:57.691Z,71.97
2018-07-19T02:17:26.978Z,72.02
2018-07-19T02:19:55.692Z,73.09
2018-07-19T02:22:24.316Z,73.81
2018-07-19T02:24:53.205Z,73.60
2018-07-19T02:27:22.071Z,74.26
2018-07-19T02:29:50.727Z,74.97
2018-07-19T02:32:19.359Z,74.78
2018-07-19T02:34:47.964Z,75.19
2018-07-19T02:37:16.711Z,75.24
2018-07-19T02:39:45.372Z,75.28
2018-07-19T02:42:13.991Z,75.85
2018-07-19T02:44:42.671Z,75.92
2018-07-19T02:47:11.336Z,75.58
2018-07-19T02:49:40.040Z,75.66
2018-07-19T02:52:10.359Z,75.80
2018-07-19T02:54:39.000Z,76.37
2018-07-19T02:57:07.765Z,76.31
2018-07-19T02:59:36.464Z,76.62
2018-07-19T03:02:05.204Z,76.90
2018-07-19T03:04:34.843Z,76.87
2018-07-19T03:07:03.626Z,77.04
2018-07-19T03:09:32.350Z,77.33
2018-07-19T03:12:01.106Z,77.00
2018-07-19T03:14:29.845Z,77.42
2018-07-19T03:16:58.476Z,77.23
2018-07-19T03:19:27.167Z,77.55
2018-07-19T03:21:55.856Z,77.95
2018-07-19T03:24:24.536Z,77.34
2018-07-19T03:26:53.634Z,77.73
2018-07-19T03:29:22.480Z,77.82
2018-07-19T03:31:51.160Z,78.16
2018-07-19T03:34:19.929Z,77.58
2018-07-19T03:36:49.500Z,77.91
2018-07-19T03:39:18.161Z,78.12
2018-07-19T03:41:47.132Z,77.76
2018-07-19T03:44:16.706Z,76.97
2018-07-19T03:46:45.465Z,77.19
2018-07-19T03:49:14.179Z,77.10
2018-07-19T03:51:42.986Z,76.85
2018-07-19T03:54:12.390Z,76.96
2018-07-19T03:56:41.099Z,76.84
2018-07-19T03:59:10.090Z,76.94
2018-07-19T04:01:38.749Z,76.94
2018-07-19T04:04:07.477Z,76.49
2018-07-19T04:06:36.146Z,76.81
2018-07-19T04:09:06.467Z,76.93
2018-07-19T04:11:35.146Z,76.68
2018-07-19T04:14:03.997Z,76.67
2018-07-19T04:16:32.755Z,76.80
2018-07-19T04:19:01.470Z,76.78
2018-07-19T04:21:30.113Z,76.55
2018-07-19T04:23:58.795Z,76.58
2018-07-19T04:26:27.479Z,76.35
2018-07-19T04:28:56.191Z,76.45
2018-07-19T04:31:24.959Z,76.14
2018-07-19T04:33:53.748Z,75.35
2018-07-19T04:36:22.411Z,75.12
2018-07-19T04:38:51.247Z,74.42
2018-07-19T04:41:19.925Z,74.55
2018-07-19T04:43:48.633Z,73.91
2018-07-19T04:46:17.324Z,73.70
2018-07-19T04:48:46.011Z,73.38
2018-07-19T04:51:14.694Z,73.60
2018-07-19T04:53:43.454Z,73.49
2018-07-19T04:56:12.096Z,73.65
2018-07-19T04:58:40.829Z,72.82
2018-07-19T05:01:09.508Z,72.92
2018-07-19T05:03:38.260Z,72.40
2018-07-19T05:06:06.940Z,71.51
2018-07-19T05:08:35.624Z,70.41
2018-07-19T05:11:04.376Z,70.09
2018-07-19T05:13:33.573Z,68.57
2018-07-19T05:16:02.221Z,69.03
2018-07-19T05:18:30.823Z,68.03
2018-07-19T05:20:59.601Z,67.97
2018-07-19T05:23:28.312Z,67.74
2018-07-19T05:25:57.247Z,67.19
2018-07-19T05:28:25.992Z,66.53
2018-07-19T05:30:54.661Z,65.89
2018-07-19T05:33:23.361Z,65.29
2018-07-19T05:35:52.086Z,64.82
2018-07-19T05:38:20.728Z,65.23
2018-07-19T05:40:49.421Z,65.67
2018-07-19T05:43:18.127Z,65.71
2018-07-19T05:45:46.923Z,66.48
2018-07-19T05:48:15.653Z,66.49
2018-07-19T05:50:44.488Z,66.95
2018-07-19T05:53:13.253Z,69.35
2018-07-19T05:55:41.959Z,69.74
2018-07-19T05:58:10.714Z,70.24
2018-07-19T06:00:39.412Z,70.63
2018-07-19T06:03:08.100Z,70.37
2018-07-19T06:05:36.852Z,70.33
2018-07-19T06:08:05.487Z,70.46
2018-07-19T06:10:34.157Z,70.77
2018-07-19T06:13:02.824Z,70.18
2018-07-19T06:15:31.487Z,69.62
2018-07-19T06:18:00.334Z,70.05
2018-07-19T06:20:29.104Z,69.47
2018-07-19T06:22:57.872Z,68.92
2018-07-19T06:25:27.050Z,68.81
2018-07-19T06:27:55.813Z,68.50
2018-07-19T06:30:24.936Z,67.99
2018-07-19T06:32:53.621Z,68.91
2018-07-19T06:35:22.307Z,68.65
2018-07-19T06:37:50.973Z,68.01
2018-07-19T06:40:19.757Z,67.41
2018-07-19T06:42:48.567Z,67.84
2018-07-19T06:45:17.507Z,68.18
2018-07-19T06:47:46.282Z,68.56
2018-07-19T06:50:15.087Z,68.11
2018-07-19T06:52:43.858Z,67.79
2018-07-19T06:55:13.035Z,67.12
2018-07-19T06:57:41.756Z,67.38
2018-07-19T07:00:10.534Z,66.69
2018-07-19T07:02:39.209Z,67.49
2018-07-19T07:05:07.874Z,67.57
2018-07-19T07:07:36.692Z,66.61
2018-07-19T07:10:05.453Z,66.11
2018-07-19T07:12:34.141Z,64.98
2018-07-19T07:15:02.992Z,64.76
2018-07-19T07:17:31.600Z,64.11
2018-07-19T07:20:00.553Z,64.04
2018-07-19T07:22:29.316Z,63.77
2018-07-19T07:24:58.167Z,63.16
2018-07-19T07:27:27.198Z,62.42
2018-07-19T07:29:56.068Z,62.49
2018-07-19T07:32:24.877Z,60.79
2018-07-19T07:34:53.695Z,60.62
2018-07-19T07:37:22.672Z,60.08
2018-07-19T07:39:51.434Z,62.14
2018-07-19T07:42:26.606Z,62.81
2018-07-19T07:44:55.568Z,62.16
2018-07-19T07:47:24.423Z,63.71
2018-07-19T07:49:53.196Z,62.10
2018-07-19T07:52:21.932Z,61.73
2018-07-19T07:54:50.658Z,61.15
2018-07-19T07:57:19.440Z,61.52
2018-07-19T07:59:48.439Z,61.09
2018-07-19T08:02:17.196Z,60.27
2018-07-19T08:04:45.820Z,61.45
2018-07-19T08:07:15.025Z,60.52
2018-07-19T08:09:43.725Z,61.25
2018-07-19T08:12:12.456Z,60.94
2018-07-19T08:14:41.094Z,61.32
2018-07-19T08:17:09.915Z,60.37
2018-07-19T08:19:38.601Z,59.65
2018-07-19T08:22:07.290Z,59.48
2018-07-19T08:24:35.935Z,58.85
2018-07-19T08:27:04.656Z,58.21
2018-07-19T08:29:33.360Z,58.66
2018-07-19T08:32:02.181Z,57.93
2018-07-19T08:34:30.856Z,56.84
2018-07-19T08:36:59.536Z,55.71
2018-07-19T08:39:28.207Z,54.50
2018-07-19T08:41:56.950Z,53.99
2018-07-19T08:44:25.572Z,54.80
2018-07-19T08:46:54.300Z,52.41
2018-07-19T08:49:22.961Z,52.38
2018-07-19T08:51:52.232Z,51.35
2018-07-19T08:54:20.949Z,51.08
2018-07-19T08:56:49.784Z,50.92
2018-07-19T08:59:18.488Z,49.20
2018-07-19T09:01:47.360Z,49.59
2018-07-19T09:04:16.059Z,49.19
2018-07-19T09:06:44.731Z,49.14
2018-07-19T09:09:13.429Z,47.86
2018-07-19T09:11:42.088Z,47.76
2018-07-19T09:14:10.850Z,47.87
2018-07-19T09:16:39.493Z,46.42
2018-07-19T09:19:08.229Z,47.81
2018-07-19T09:21:37.066Z,47.26
2018-07-19T09:24:05.808Z,47.52
2018-07-19T09:26:34.495Z,46.65
2018-07-19T09:29:03.187Z,46.55
2018-07-19T09:31:31.876Z,46.86
2018-07-19T09:34:00.579Z,46.16
2018-07-19T09:36:29.342Z,46.81
2018-07-19T09:38:58.025Z,45.74
2018-07-19T09:41:26.660Z,46.75
2018-07-19T09:43:55.468Z,47.28
2018-07-19T09:46:24.188Z,47.69
2018-07-19T09:48:53.012Z,47.74
2018-07-19T09:51:21.798Z,46.39
2018-07-19T09:53:50.621Z,44.79
2018-07-19T09:56:19.547Z,44.92
2018-07-19T09:58:48.292Z,44.97
2018-07-19T10:01:19.725Z,44.37
2018-07-19T10:03:49.689Z,45.66
2018-07-19T10:06:18.339Z,44.87
2018-07-19T10:08:46.983Z,44.69
2018-07-19T10:11:16.272Z,45.71
2018-07-19T10:13:46.011Z,44.73
2018-07-19T10:16:14.619Z,44.47
2018-07-19T10:18:43.492Z,44.37
2018-07-19T10:21:12.139Z,45.72
2018-07-19T10:23:41.030Z,44.94
2018-07-19T10:26:09.704Z,46.09
2018-07-19T10:28:38.409Z,44.89
2018-07-19T10:31:07.375Z,44.95
2018-07-19T10:33:36.132Z,44.36
2018-07-19T10:36:04.885Z,44.47
2018-07-19T10:38:33.564Z,41.92
2018-07-19T10:41:02.251Z,42.30
2018-07-19T10:43:30.964Z,45.19
2018-07-19T10:45:59.743Z,44.25
2018-07-19T10:48:28.403Z,43.79
2018-07-19T10:50:57.190Z,44.50
2018-07-19T10:53:25.875Z,44.90
2018-07-19T10:55:54.536Z,43.84
2018-07-19T10:58:23.237Z,42.12
2018-07-19T11:00:51.907Z,41.60
2018-07-19T11:03:20.552Z,39.85
2018-07-19T11:05:49.215Z,39.67
2018-07-19T11:08:17.958Z,38.46
2018-07-19T11:10:46.815Z,37.78
2018-07-19T11:13:15.746Z,36.38
2018-07-19T11:15:44.824Z,33.51
2018-07-19T11:18:13.596Z,33.94
2018-07-19T11:20:42.328Z,33.47
2018-07-19T11:23:11.076Z,31.97
2018-07-19T11:25:39.764Z,31.89
2018-07-19T11:28:08.543Z,32.57
2018-07-19T11:30:37.252Z,37.77
2018-07-19T11:33:06.130Z,32.64
2018-07-19T11:35:34.939Z,31.98
2018-07-19T11:38:03.750Z,31.10
2018-07-19T11:40:33.017Z,30.51
2018-07-19T11:43:01.736Z,31.18
2018-07-19T11:45:30.729Z,30.65
2018-07-19T11:47:59.416Z,30.89
2018-07-19T11:50:28.155Z,29.31
2018-07-19T11:52:56.824Z,29.60
2018-07-19T11:55:25.517Z,31.07
2018-07-19T11:57:54.428Z,31.35
2018-07-19T12:00:23.212Z,34.28
2018-07-19T12:02:51.966Z,36.42
2018-07-19T12:05:20.787Z,38.54
2018-07-19T12:07:50.507Z,40.24
2018-07-19T12:10:19.187Z,39.09
2018-07-19T12:12:48.324Z,37.85
2018-07-19T12:15:17.080Z,38.34
2018-07-19T12:17:45.843Z,38.29
2018-07-19T12:20:14.540Z,39.96
2018-07-19T12:22:43.329Z,39.85
2018-07-19T12:25:12.060Z,39.50
2018-07-19T12:27:40.775Z,38.53
2018-07-19T12:30:09.223Z,36.42
2018-07-19T12:32:37.913Z,38.63
2018-07-19T12:35:06.584Z,37.67
2018-07-19T12:37:35.299Z,37.09
2018-07-19T12:40:03.993Z,37.32
2018-07-19T12:42:32.885Z,37.70
2018-07-19T12:45:01.684Z,36.71
2018-07-19T12:47:30.368Z,37.58
2018-07-19T12:49:59.253Z,36.96
2018-07-19T12:52:28.447Z,36.80
2018-07-19T12:54:57.076Z,36.45
2018-07-19T12:57:25.739Z,37.37
2018-07-19T12:59:54.378Z,35.95
2018-07-19T13:02:23.013Z,37.14
2018-07-19T13:04:51.803Z,37.51
2018-07-19T13:07:20.514Z,37.61
2018-07-19T13:09:49.193Z,38.01
2018-07-19T13:12:18.168Z,39.15
2018-07-19T13:14:47.104Z,38.70
2018-07-19T13:17:15.886Z,39.22
2018-07-19T13:19:44.532Z,39.00
2018-07-19T13:22:13.207Z,38.21
2018-07-19T13:24:42.457Z,39.23
2018-07-19T13:27:11.154Z,39.21
2018-07-19T13:29:39.889Z,40.58
2018-07-19T13:32:08.720Z,39.25
2018-07-19T13:34:37.636Z,38.99
2018-07-19T13:37:06.292Z,38.45
2018-07-19T13:39:34.937Z,39.51
2018-07-19T13:42:03.630Z,40.05
2018-07-19T13:44:32.351Z,39.25
2018-07-19T13:47:00.997Z,40.53
2018-07-19T13:49:29.680Z,40.26
2018-07-19T13:51:58.386Z,40.28
2018-07-19T13:54:47.643Z,39.57
2018-07-19T13:57:16.479Z,43.16
2018-07-19T13:59:45.300Z,41.80
2018-07-19T14:02:14.412Z,41.77
2018-07-19T14:04:43.115Z,41.76
2018-07-19T14:07:11.864Z,40.10
2018-07-19T14:09:40.761Z,40.14
2018-07-19T14:12:09.468Z,41.36
2018-07-19T14:14:38.189Z,40.48
2018-07-19T14:17:07.024Z,40.57
2018-07-19T14:19:36.009Z,40.40
2018-07-19T14:22:04.788Z,39.73
2018-07-19T14:24:33.534Z,40.86
2018-07-19T14:27:02.362Z,40.92
2018-07-19T14:29:31.146Z,40.92
2018-07-19T14:32:00.294Z,41.52
2018-07-19T14:34:29.034Z,41.28
2018-07-19T14:36:57.732Z,41.21
2018-07-19T14:39:26.674Z,41.19
2018-07-19T14:41:55.367Z,41.60
2018-07-19T14:44:24.189Z,40.81
2018-07-19T14:46:52.866Z,40.70
2018-07-19T14:49:21.554Z,40.54
2018-07-19T14:51:50.242Z,40.97
2018-07-19T14:54:19.169Z,41.67
2018-07-19T14:56:47.808Z,41.75
2018-07-19T14:59:16.604Z,41.51
2018-07-19T15:01:45.220Z,42.19
2018-07-19T15:04:13.939Z,42.08
2018-07-19T15:06:42.564Z,42.37
2018-07-19T15:09:11.860Z,41.87
2018-07-19T15:11:41.057Z,41.44
2018-07-19T15:14:09.721Z,41.55
2018-07-19T15:16:38.364Z,42.50
2018-07-19T15:19:07.056Z,42.69
2018-07-19T15:21:35.799Z,42.48
2018-07-19T15:24:04.569Z,42.61
2018-07-19T15:26:33.314Z,42.99
2018-07-19T15:29:02.140Z,41.44
2018-07-19T15:31:30.796Z,42.28
2018-07-19T15:33:59.608Z,42.70
2018-07-19T15:36:28.285Z,43.05
2018-07-19T15:38:56.968Z,42.78
2018-07-19T15:41:25.668Z,42.92
2018-07-19T15:43:54.354Z,43.68
2018-07-19T15:46:23.000Z,43.19
2018-07-19T15:48:51.646Z,42.99
2018-07-19T15:51:20.265Z,42.85
2018-07-19T15:53:48.990Z,42.65
2018-07-19T15:56:17.628Z,42.56
2018-07-19T15:58:46.355Z,42.41
2018-07-19T16:01:15.104Z,42.62
2018-07-19T16:03:43.862Z,42.52
2018-07-19T16:06:12.540Z,43.07
2018-07-19T16:08:41.304Z,43.90
2018-07-19T16:11:10.120Z,43.37
2018-07-19T16:13:38.828Z,42.46
2018-07-19T16:16:07.690Z,42.41
2018-07-19T16:18:36.407Z,43.40
2018-07-19T16:21:05.137Z,42.96
2018-07-19T16:23:34.030Z,42.92
2018-07-19T16:26:03.217Z,42.99
2018-07-19T16:28:32.260Z,43.32
2018-07-19T16:31:00.977Z,43.02
2018-07-19T16:33:29.724Z,43.23
2018-07-19T16:35:58.368Z,43.79
2018-07-19T16:38:27.170Z,42.30
2018-07-19T16:40:56.019Z,42.69
2018-07-19T16:43:24.961Z,42.29
2018-07-19T16:45:53.819Z,43.21
2018-07-19T16:48:23.097Z,43.76
2018-07-19T16:50:51.877Z,43.11
2018-07-19T16:53:20.732Z,42.58
2018-07-19T16:55:49.440Z,43.14
2018-07-19T16:58:18.153Z,42.40
2018-07-19T17:00:46.904Z,43.33
2018-07-19T17:03:15.589Z,42.78
2018-07-19T17:05:44.280Z,42.58
2018-07-19T17:08:13.004Z,43.03
2018-07-19T17:10:41.805Z,42.48
2018-07-19T17:13:10.592Z,42.80
2018-07-19T17:15:39.326Z,43.61
2018-07-19T17:18:08.083Z,42.89
2018-07-19T17:20:36.858Z,42.85
2018-07-19T17:23:05.543Z,43.27
2018-07-19T17:25:34.233Z,43.76
2018-07-19T17:28:03.163Z,43.57
2018-07-19T17:30:31.827Z,43.43
2018-07-19T17:33:00.572Z,43.20
2018-07-19T17:35:29.321Z,43.44
2018-07-19T17:37:58.029Z,43.27
2018-07-19T17:40:27.731Z,43.32
2018-07-19T17:42:56.584Z,43.32
2018-07-19T17:45:25.261Z,43.65
2018-07-19T17:47:54.039Z,42.94
2018-07-19T17:50:22.740Z,43.21
2018-07-19T17:52:51.793Z,43.66
2018-07-19T17:55:20.837Z,43.40
2018-07-19T17:57:49.559Z,43.30
2018-07-19T18:00:18.244Z,43.40
2018-07-19T18:02:46.965Z,43.63
2018-07-19T18:05:17.465Z,44.02
2018-07-19T18:07:46.504Z,43.56
2018-07-19T18:10:15.159Z,44.05
2018-07-19T18:12:44.040Z,45.85
2018-07-19T18:15:12.750Z,48.54
2018-07-19T18:17:41.698Z,46.33
2018-07-19T18:20:10.425Z,45.24
2018-07-19T18:22:39.137Z,45.56
2018-07-19T18:25:08.268Z,44.95
2018-07-19T18:27:37.144Z,46.56
2018-07-19T18:30:06.852Z,45.98
2018-07-19T18:32:35.543Z,45.59
2018-07-19T18:35:04.226Z,45.84
2018-07-19T18:37:33.019Z,45.91
2018-07-19T18:40:01.665Z,45.46
2018-07-19T18:42:30.398Z,46.50
2018-07-19T18:44:59.144Z,46.29
2018-07-19T18:47:27.822Z,47.13
2018-07-19T18:49:56.468Z,46.79
2018-07-19T18:52:25.124Z,46.42
2018-07-19T18:54:53.788Z,46.70
2018-07-19T18:57:22.498Z,47.05
2018-07-19T18:59:51.180Z,47.26
2018-07-19T19:02:19.866Z,48.51
2018-07-19T19:04:48.862Z,47.55
2018-07-19T19:07:17.602Z,48.93
2018-07-19T19:09:46.417Z,48.41
2018-07-19T19:12:15.149Z,49.28
2018-07-19T19:14:43.793Z,49.39
2018-07-19T19:17:12.593Z,49.44
2018-07-19T19:19:41.312Z,49.33
2018-07-19T19:22:09.981Z,50.03
2018-07-19T19:24:38.720Z,49.91
2018-07-19T19:27:07.450Z,49.99
2018-07-19T19:29:36.925Z,49.69
2018-07-19T19:32:05.800Z,50.24
2018-07-19T19:34:34.471Z,50.32
2018-07-19T19:37:03.231Z,50.45
2018-07-19T19:39:32.014Z,51.03
2018-07-19T19:42:00.885Z,50.91
2018-07-19T19:44:29.696Z,50.63
2018-07-19T19:46:59.593Z,51.43
2018-07-19T19:49:28.422Z,51.72
2018-07-19T19:51:57.141Z,51.65
2018-07-19T19:54:26.012Z,51.64
2018-07-19T19:56:54.795Z,51.56
2018-07-19T19:59:23.549Z,51.82
2018-07-19T20:01:53.365Z,52.28
2018-07-19T20:04:22.082Z,52.24
2018-07-19T20:06:50.921Z,52.66
2018-07-19T20:09:19.912Z,52.53
2018-07-19T20:11:48.793Z,52.86
2018-07-19T20:14:17.582Z,53.07
2018-07-19T20:16:46.269Z,53.15
2018-07-19T20:19:15.232Z,53.76
2018-07-19T20:21:43.955Z,53.81
2018-07-19T20:24:13.661Z,54.34
2018-07-19T20:26:42.712Z,54.79
2018-07-19T20:29:11.477Z,54.57
2018-07-19T20:31:40.396Z,54.88
2018-07-19T20:34:09.291Z,55.63
2018-07-19T20:36:38.802Z,56.32
2018-07-19T20:39:08.401Z,56.14
2018-07-19T20:41:37.796Z,56.48
2018-07-19T20:44:06.595Z,56.56
2018-07-19T20:46:36.856Z,56.60
2018-07-19T20:49:05.641Z,56.87
2018-07-19T20:51:34.360Z,57.34
2018-07-19T20:54:03.088Z,57.89
2018-07-19T20:56:31.991Z,57.97
2018-07-19T20:59:00.761Z,58.24
2018-07-19T21:01:29.444Z,57.83
2018-07-19T21:03:58.177Z,57.49
2018-07-19T21:06:30.592Z,57.79
2018-07-19T21:08:59.805Z,57.80
2018-07-19T21:11:28.531Z,58.31
2018-07-19T21:13:57.306Z,59.19
2018-07-19T21:16:26.188Z,59.16
2018-07-19T21:18:55.108Z,59.35
2018-07-19T21:21:24.012Z,59.92
2018-07-19T21:23:52.711Z,59.77
2018-07-19T21:26:23.352Z,59.68
2018-07-19T21:28:55.498Z,59.58
2018-07-19T21:31:25.788Z,60.03
2018-07-19T21:33:54.585Z,60.19
2018-07-19T21:36:23.327Z,60.69
2018-07-19T21:38:52.484Z,61.10
2018-07-19T21:41:26.349Z,61.73
2018-07-19T21:43:55.306Z,62.28
2018-07-19T21:46:24.001Z,62.31
2018-07-19T21:48:52.688Z,62.95
2018-07-19T21:51:27.348Z,62.92
2018-07-19T21:53:56.949Z,63.48
2018-07-19T21:56:25.651Z,63.52
2018-07-19T21:58:54.427Z,63.75
2018-07-19T22:01:30.893Z,63.85
2018-07-19T22:03:59.652Z,64.74
2018-07-19T22:06:33.896Z,64.37
2018-07-19T22:09:02.681Z,64.55
2018-07-19T22:11:31.420Z,64.48
2018-07-19T22:14:00.125Z,64.31
2018-07-19T22:16:28.818Z,64.40
2018-07-19T22:18:57.500Z,64.19
2018-07-19T22:21:26.474Z,64.03
2018-07-19T22:23:55.248Z,64.47
2018-07-19T22:26:24.017Z,64.50
2018-07-19T22:28:52.636Z,64.95
2018-07-19T22:31:24.615Z,64.77
2018-07-19T22:33:53.368Z,64.58
2018-07-19T22:36:22.052Z,65.21
2018-07-19T22:38:50.773Z,65.46
2018-07-19T22:41:19.546Z,65.61
2018-07-19T22:43:48.233Z,65.41
2018-07-19T22:46:16.851Z,65.82
2018-07-19T22:48:45.545Z,66.51
2018-07-19T22:51:14.228Z,66.88
2018-07-19T22:53:44.027Z,67.25
2018-07-19T22:56:15.243Z,67.28
2018-07-19T22:58:43.997Z,68.02
2018-07-19T23:01:12.797Z,69.01
2018-07-19T23:03:43.704Z,68.91
2018-07-19T23:06:12.512Z,69.13
2018-07-19T23:08:41.269Z,69.05
2018-07-19T23:11:09.986Z,68.70
2018-07-19T23:13:38.708Z,69.08
2018-07-19T23:16:07.685Z,69.63
2018-07-19T23:18:36.397Z,69.50
2018-07-19T23:21:05.376Z,69.39
2018-07-19T23:23:34.144Z,69.77
2018-07-19T23:26:04.049Z,69.89
2018-07-19T23:28:32.760Z,69.87
2018-07-19T23:31:01.464Z,70.26
2018-07-19T23:33:30.235Z,70.47
2018-07-19T23:36:07.456Z,70.59
2018-07-19T23:38:41.472Z,72.16
2018-07-19T23:41:14.456Z,72.16
2018-07-19T23:43:47.825Z,72.68
2018-07-19T23:46:18.824Z,72.65
2018-07-19T23:48:47.930Z,72.39
2018-07-19T23:51:16.613Z,71.81
2018-07-19T23:53:45.253Z,72.12
2018-07-19T23:56:13.946Z,72.55
2018-07-19T23:58:42.652Z,72.72
